sensor_id;sensor_type;location;lat;lon;timestamp;P1;durP1;ratioP1;P2;durP2;ratioP2
52576;SDS011;38469;53.562;10.048;2023-07-09T00:00:52;6.85;;;2.70;;
52576;SDS011;38469;53.562;10.048;2023-07-09T00:03:19;5.97;;;3.03;;
52576;SDS011;38469;53.562;10.048;2023-07-09T00:05:46;7.47;;;3.33;;
52576;SDS011;38469;53.562;10.048;2023-07-09T00:08:18;9.70;;;3.15;;
52576;SDS011;38469;53.562;10.048;2023-07-09T00:10:51;4.93;;;3.35;;
52576;SDS011;38469;53.562;10.048;2023-07-09T00:13:18;5.45;;;3.03;;
52576;SDS011;38469;53.562;10.048;2023-07-09T00:15:44;3.47;;;2.90;;
52576;SDS011;38469;53.562;10.048;2023-07-09T00:18:12;8.23;;;3.30;;
52576;SDS011;38469;53.562;10.048;2023-07-09T00:20:38;10.70;;;3.63;;
52576;SDS011;38469;53.562;10.048;2023-07-09T00:23:06;5.90;;;3.15;;
52576;SDS011;38469;53.562;10.048;2023-07-09T00:25:34;4.72;;;2.88;;
52576;SDS011;38469;53.562;10.048;2023-07-09T00:28:01;6.57;;;2.95;;
52576;SDS011;38469;53.562;10.048;2023-07-09T00:30:27;9.88;;;2.97;;
52576;SDS011;38469;53.562;10.048;2023-07-09T00:32:54;3.22;;;2.90;;
52576;SDS011;38469;53.562;10.048;2023-07-09T00:35:22;3.72;;;3.30;;
52576;SDS011;38469;53.562;10.048;2023-07-09T00:37:50;5.65;;;2.95;;
52576;SDS011;38469;53.562;10.048;2023-07-09T00:40:17;3.17;;;2.78;;
52576;SDS011;38469;53.562;10.048;2023-07-09T00:42:47;5.20;;;3.05;;
52576;SDS011;38469;53.562;10.048;2023-07-09T00:45:19;6.45;;;3.20;;
52576;SDS011;38469;53.562;10.048;2023-07-09T00:47:48;4.63;;;2.90;;
52576;SDS011;38469;53.562;10.048;2023-07-09T00:50:24;4.05;;;3.13;;
52576;SDS011;38469;53.562;10.048;2023-07-09T00:52:59;3.63;;;3.22;;
52576;SDS011;38469;53.562;10.048;2023-07-09T00:55:32;4.13;;;2.65;;
52576;SDS011;38469;53.562;10.048;2023-07-09T00:58:06;2.97;;;2.50;;
52576;SDS011;38469;53.562;10.048;2023-07-09T01:00:35;11.48;;;4.38;;
52576;SDS011;38469;53.562;10.048;2023-07-09T01:03:11;8.90;;;3.25;;
52576;SDS011;38469;53.562;10.048;2023-07-09T01:05:46;5.90;;;3.03;;
52576;SDS011;38469;53.562;10.048;2023-07-09T01:08:16;6.05;;;2.70;;
52576;SDS011;38469;53.562;10.048;2023-07-09T01:10:43;5.20;;;3.20;;
52576;SDS011;38469;53.562;10.048;2023-07-09T01:13:10;4.30;;;2.80;;
52576;SDS011;38469;53.562;10.048;2023-07-09T01:15:36;6.22;;;2.53;;
52576;SDS011;38469;53.562;10.048;2023-07-09T01:18:03;4.05;;;2.83;;
52576;SDS011;38469;53.562;10.048;2023-07-09T01:20:30;4.15;;;2.90;;
52576;SDS011;38469;53.562;10.048;2023-07-09T01:22:59;3.30;;;2.63;;
52576;SDS011;38469;53.562;10.048;2023-07-09T01:25:26;4.90;;;3.10;;
52576;SDS011;38469;53.562;10.048;2023-07-09T01:27:54;6.70;;;3.10;;
52576;SDS011;38469;53.562;10.048;2023-07-09T01:30:23;4.20;;;2.70;;
52576;SDS011;38469;53.562;10.048;2023-07-09T01:32:55;5.10;;;2.95;;
52576;SDS011;38469;53.562;10.048;2023-07-09T01:35:24;2.65;;;2.45;;
52576;SDS011;38469;53.562;10.048;2023-07-09T01:37:51;5.75;;;2.90;;
52576;SDS011;38469;53.562;10.048;2023-07-09T01:40:20;5.60;;;3.03;;
52576;SDS011;38469;53.562;10.048;2023-07-09T01:42:48;4.10;;;2.78;;
52576;SDS011;38469;53.562;10.048;2023-07-09T01:45:15;3.95;;;2.80;;
52576;SDS011;38469;53.562;10.048;2023-07-09T01:47:42;4.03;;;2.85;;
52576;SDS011;38469;53.562;10.048;2023-07-09T01:50:09;5.95;;;2.60;;
52576;SDS011;38469;53.562;10.048;2023-07-09T01:52:37;3.40;;;2.85;;
52576;SDS011;38469;53.562;10.048;2023-07-09T01:55:07;5.85;;;2.70;;
52576;SDS011;38469;53.562;10.048;2023-07-09T01:57:36;3.65;;;2.88;;
52576;SDS011;38469;53.562;10.048;2023-07-09T02:00:06;4.07;;;3.00;;
52576;SDS011;38469;53.562;10.048;2023-07-09T02:02:35;5.30;;;2.88;;
52576;SDS011;38469;53.562;10.048;2023-07-09T02:05:04;4.25;;;2.97;;
52576;SDS011;38469;53.562;10.048;2023-07-09T02:07:31;4.07;;;2.78;;
52576;SDS011;38469;53.562;10.048;2023-07-09T02:09:58;5.80;;;2.95;;
52576;SDS011;38469;53.562;10.048;2023-07-09T02:12:24;5.03;;;2.60;;
52576;SDS011;38469;53.562;10.048;2023-07-09T02:14:52;6.30;;;3.20;;
52576;SDS011;38469;53.562;10.048;2023-07-09T02:17:19;3.75;;;3.00;;
52576;SDS011;38469;53.562;10.048;2023-07-09T02:19:45;4.70;;;2.88;;
52576;SDS011;38469;53.562;10.048;2023-07-09T02:22:12;5.63;;;2.97;;
52576;SDS011;38469;53.562;10.048;2023-07-09T02:24:38;3.35;;;2.97;;
52576;SDS011;38469;53.562;10.048;2023-07-09T02:27:06;5.60;;;2.60;;
52576;SDS011;38469;53.562;10.048;2023-07-09T02:29:35;2.90;;;2.65;;
52576;SDS011;38469;53.562;10.048;2023-07-09T02:32:03;4.22;;;3.03;;
52576;SDS011;38469;53.562;10.048;2023-07-09T02:34:31;3.22;;;2.78;;
52576;SDS011;38469;53.562;10.048;2023-07-09T02:36:58;2.88;;;2.60;;
52576;SDS011;38469;53.562;10.048;2023-07-09T02:39:25;3.67;;;2.80;;
52576;SDS011;38469;53.562;10.048;2023-07-09T02:41:52;6.75;;;3.00;;
52576;SDS011;38469;53.562;10.048;2023-07-09T02:44:19;3.33;;;2.58;;
52576;SDS011;38469;53.562;10.048;2023-07-09T02:46:45;3.97;;;2.75;;
52576;SDS011;38469;53.562;10.048;2023-07-09T02:49:13;5.95;;;2.55;;
52576;SDS011;38469;53.562;10.048;2023-07-09T02:51:40;3.17;;;2.88;;
52576;SDS011;38469;53.562;10.048;2023-07-09T02:54:07;2.90;;;2.63;;
52576;SDS011;38469;53.562;10.048;2023-07-09T02:56:34;6.80;;;3.00;;
52576;SDS011;38469;53.562;10.048;2023-07-09T02:59:00;3.90;;;3.03;;
52576;SDS011;38469;53.562;10.048;2023-07-09T03:01:27;6.22;;;2.83;;
52576;SDS011;38469;53.562;10.048;2023-07-09T03:03:53;4.35;;;2.85;;
52576;SDS011;38469;53.562;10.048;2023-07-09T03:06:22;5.13;;;2.80;;
52576;SDS011;38469;53.562;10.048;2023-07-09T03:08:50;3.67;;;3.38;;
52576;SDS011;38469;53.562;10.048;2023-07-09T03:11:17;4.30;;;2.80;;
52576;SDS011;38469;53.562;10.048;2023-07-09T03:13:45;7.72;;;2.78;;
52576;SDS011;38469;53.562;10.048;2023-07-09T03:16:12;3.65;;;2.92;;
52576;SDS011;38469;53.562;10.048;2023-07-09T03:18:39;3.33;;;3.03;;
52576;SDS011;38469;53.562;10.048;2023-07-09T03:21:06;4.97;;;2.90;;
52576;SDS011;38469;53.562;10.048;2023-07-09T03:23:33;5.85;;;3.22;;
52576;SDS011;38469;53.562;10.048;2023-07-09T03:26:00;3.70;;;2.58;;
52576;SDS011;38469;53.562;10.048;2023-07-09T03:28:26;4.93;;;2.67;;
52576;SDS011;38469;53.562;10.048;2023-07-09T03:30:53;5.80;;;2.83;;
52576;SDS011;38469;53.562;10.048;2023-07-09T03:33:21;4.05;;;2.53;;
52576;SDS011;38469;53.562;10.048;2023-07-09T03:35:49;6.07;;;3.22;;
52576;SDS011;38469;53.562;10.048;2023-07-09T03:38:15;4.25;;;2.60;;
52576;SDS011;38469;53.562;10.048;2023-07-09T03:40:43;5.60;;;3.10;;
52576;SDS011;38469;53.562;10.048;2023-07-09T03:43:10;4.80;;;3.28;;
52576;SDS011;38469;53.562;10.048;2023-07-09T03:45:37;4.30;;;2.85;;
52576;SDS011;38469;53.562;10.048;2023-07-09T03:48:04;8.70;;;2.97;;
52576;SDS011;38469;53.562;10.048;2023-07-09T03:50:31;6.90;;;3.03;;
52576;SDS011;38469;53.562;10.048;2023-07-09T03:52:58;4.07;;;3.13;;
52576;SDS011;38469;53.562;10.048;2023-07-09T03:55:25;4.55;;;2.97;;
52576;SDS011;38469;53.562;10.048;2023-07-09T03:57:53;3.15;;;2.70;;
52576;SDS011;38469;53.562;10.048;2023-07-09T04:00:20;3.83;;;2.95;;
52576;SDS011;38469;53.562;10.048;2023-07-09T04:02:47;8.95;;;2.72;;
52576;SDS011;38469;53.562;10.048;2023-07-09T04:05:14;6.10;;;3.28;;
52576;SDS011;38469;53.562;10.048;2023-07-09T04:07:42;2.97;;;2.78;;
52576;SDS011;38469;53.562;10.048;2023-07-09T04:10:10;3.72;;;2.95;;
52576;SDS011;38469;53.562;10.048;2023-07-09T04:12:37;3.20;;;2.90;;
52576;SDS011;38469;53.562;10.048;2023-07-09T04:15:05;3.78;;;3.00;;
52576;SDS011;38469;53.562;10.048;2023-07-09T04:17:33;5.60;;;3.05;;
52576;SDS011;38469;53.562;10.048;2023-07-09T04:19:59;3.78;;;3.08;;
52576;SDS011;38469;53.562;10.048;2023-07-09T04:22:27;8.02;;;3.60;;
52576;SDS011;38469;53.562;10.048;2023-07-09T04:24:53;2.60;;;2.40;;
52576;SDS011;38469;53.562;10.048;2023-07-09T04:27:19;3.38;;;2.90;;
52576;SDS011;38469;53.562;10.048;2023-07-09T04:29:46;4.80;;;2.50;;
52576;SDS011;38469;53.562;10.048;2023-07-09T04:32:14;3.83;;;2.85;;
52576;SDS011;38469;53.562;10.048;2023-07-09T04:34:41;3.35;;;2.72;;
52576;SDS011;38469;53.562;10.048;2023-07-09T04:37:08;6.78;;;3.20;;
52576;SDS011;38469;53.562;10.048;2023-07-09T04:39:36;4.15;;;2.80;;
52576;SDS011;38469;53.562;10.048;2023-07-09T04:42:03;4.93;;;3.30;;
52576;SDS011;38469;53.562;10.048;2023-07-09T04:44:31;6.20;;;3.10;;
52576;SDS011;38469;53.562;10.048;2023-07-09T04:46:57;3.20;;;2.90;;
52576;SDS011;38469;53.562;10.048;2023-07-09T04:49:25;7.10;;;2.95;;
52576;SDS011;38469;53.562;10.048;2023-07-09T04:51:51;5.05;;;2.72;;
52576;SDS011;38469;53.562;10.048;2023-07-09T04:54:18;3.08;;;2.53;;
52576;SDS011;38469;53.562;10.048;2023-07-09T04:56:47;6.53;;;2.97;;
52576;SDS011;38469;53.562;10.048;2023-07-09T04:59:13;3.55;;;2.95;;
52576;SDS011;38469;53.562;10.048;2023-07-09T05:01:40;5.80;;;3.03;;
52576;SDS011;38469;53.562;10.048;2023-07-09T05:04:06;4.18;;;3.10;;
52576;SDS011;38469;53.562;10.048;2023-07-09T05:06:34;7.10;;;3.25;;
52576;SDS011;38469;53.562;10.048;2023-07-09T05:09:01;6.18;;;2.90;;
52576;SDS011;38469;53.562;10.048;2023-07-09T05:11:28;4.07;;;3.15;;
52576;SDS011;38469;53.562;10.048;2023-07-09T05:13:54;3.92;;;2.80;;
52576;SDS011;38469;53.562;10.048;2023-07-09T05:16:20;6.18;;;2.90;;
52576;SDS011;38469;53.562;10.048;2023-07-09T05:18:47;3.97;;;2.63;;
52576;SDS011;38469;53.562;10.048;2023-07-09T05:21:13;3.00;;;2.60;;
52576;SDS011;38469;53.562;10.048;2023-07-09T05:23:41;3.63;;;2.92;;
52576;SDS011;38469;53.562;10.048;2023-07-09T05:26:08;2.90;;;2.58;;
52576;SDS011;38469;53.562;10.048;2023-07-09T05:28:35;4.05;;;2.80;;
52576;SDS011;38469;53.562;10.048;2023-07-09T05:31:02;6.82;;;3.22;;
52576;SDS011;38469;53.562;10.048;2023-07-09T05:33:29;7.13;;;2.97;;
52576;SDS011;38469;53.562;10.048;2023-07-09T05:35:56;4.40;;;3.00;;
52576;SDS011;38469;53.562;10.048;2023-07-09T05:38:22;6.32;;;3.08;;
52576;SDS011;38469;53.562;10.048;2023-07-09T05:40:57;5.75;;;3.17;;
52576;SDS011;38469;53.562;10.048;2023-07-09T05:43:25;4.20;;;2.72;;
52576;SDS011;38469;53.562;10.048;2023-07-09T05:45:52;4.32;;;2.78;;
52576;SDS011;38469;53.562;10.048;2023-07-09T05:48:18;4.70;;;3.17;;
52576;SDS011;38469;53.562;10.048;2023-07-09T05:50:44;4.95;;;3.35;;
52576;SDS011;38469;53.562;10.048;2023-07-09T05:53:11;6.25;;;3.00;;
52576;SDS011;38469;53.562;10.048;2023-07-09T05:55:37;2.97;;;2.50;;
52576;SDS011;38469;53.562;10.048;2023-07-09T05:58:05;3.75;;;3.17;;
52576;SDS011;38469;53.562;10.048;2023-07-09T06:00:32;3.25;;;2.95;;
52576;SDS011;38469;53.562;10.048;2023-07-09T06:02:58;5.28;;;2.70;;
52576;SDS011;38469;53.562;10.048;2023-07-09T06:05:26;5.72;;;3.00;;
52576;SDS011;38469;53.562;10.048;2023-07-09T06:07:54;3.53;;;2.78;;
52576;SDS011;38469;53.562;10.048;2023-07-09T06:10:21;7.07;;;3.20;;
52576;SDS011;38469;53.562;10.048;2023-07-09T06:12:47;5.72;;;2.65;;
52576;SDS011;38469;53.562;10.048;2023-07-09T06:15:16;4.82;;;2.80;;
52576;SDS011;38469;53.562;10.048;2023-07-09T06:17:42;3.58;;;2.67;;
52576;SDS011;38469;53.562;10.048;2023-07-09T06:20:09;4.35;;;2.88;;
52576;SDS011;38469;53.562;10.048;2023-07-09T06:22:36;2.90;;;2.67;;
52576;SDS011;38469;53.562;10.048;2023-07-09T06:25:03;5.03;;;2.88;;
52576;SDS011;38469;53.562;10.048;2023-07-09T06:27:30;3.60;;;3.30;;
52576;SDS011;38469;53.562;10.048;2023-07-09T06:29:56;3.03;;;2.83;;
52576;SDS011;38469;53.562;10.048;2023-07-09T06:32:24;4.07;;;3.25;;
52576;SDS011;38469;53.562;10.048;2023-07-09T06:34:51;4.10;;;3.10;;
52576;SDS011;38469;53.562;10.048;2023-07-09T06:37:17;3.55;;;2.85;;
52576;SDS011;38469;53.562;10.048;2023-07-09T06:39:44;7.93;;;3.05;;
52576;SDS011;38469;53.562;10.048;2023-07-09T06:42:10;3.50;;;2.65;;
52576;SDS011;38469;53.562;10.048;2023-07-09T06:44:37;4.93;;;3.03;;
52576;SDS011;38469;53.562;10.048;2023-07-09T06:47:03;4.32;;;2.97;;
52576;SDS011;38469;53.562;10.048;2023-07-09T06:49:31;3.63;;;2.80;;
52576;SDS011;38469;53.562;10.048;2023-07-09T06:51:58;3.17;;;2.88;;
52576;SDS011;38469;53.562;10.048;2023-07-09T06:54:24;3.83;;;3.00;;
52576;SDS011;38469;53.562;10.048;2023-07-09T06:56:51;7.65;;;2.47;;
52576;SDS011;38469;53.562;10.048;2023-07-09T06:59:17;3.15;;;2.55;;
52576;SDS011;38469;53.562;10.048;2023-07-09T07:01:44;6.78;;;3.00;;
52576;SDS011;38469;53.562;10.048;2023-07-09T07:04:10;4.70;;;2.88;;
52576;SDS011;38469;53.562;10.048;2023-07-09T07:06:38;6.65;;;2.88;;
52576;SDS011;38469;53.562;10.048;2023-07-09T07:09:04;3.17;;;2.85;;
52576;SDS011;38469;53.562;10.048;2023-07-09T07:11:31;5.00;;;2.90;;
52576;SDS011;38469;53.562;10.048;2023-07-09T07:13:57;2.88;;;2.35;;
52576;SDS011;38469;53.562;10.048;2023-07-09T07:16:24;4.50;;;2.90;;
52576;SDS011;38469;53.562;10.048;2023-07-09T07:18:50;2.63;;;2.42;;
52576;SDS011;38469;53.562;10.048;2023-07-09T07:21:17;3.85;;;2.90;;
52576;SDS011;38469;53.562;10.048;2023-07-09T07:23:44;3.08;;;2.75;;
52576;SDS011;38469;53.562;10.048;2023-07-09T07:26:11;3.33;;;2.80;;
52576;SDS011;38469;53.562;10.048;2023-07-09T07:28:37;2.92;;;2.42;;
52576;SDS011;38469;53.562;10.048;2023-07-09T07:31:04;2.60;;;2.40;;
52576;SDS011;38469;53.562;10.048;2023-07-09T07:33:32;2.30;;;2.10;;
52576;SDS011;38469;53.562;10.048;2023-07-09T07:35:59;4.05;;;2.70;;
52576;SDS011;38469;53.562;10.048;2023-07-09T07:38:26;2.17;;;2.08;;
52576;SDS011;38469;53.562;10.048;2023-07-09T07:40:53;2.53;;;2.20;;
52576;SDS011;38469;53.562;10.048;2023-07-09T07:43:20;4.60;;;2.40;;
52576;SDS011;38469;53.562;10.048;2023-07-09T07:45:47;5.45;;;2.58;;
52576;SDS011;38469;53.562;10.048;2023-07-09T07:48:14;2.85;;;2.58;;
52576;SDS011;38469;53.562;10.048;2023-07-09T07:50:40;4.05;;;2.45;;
52576;SDS011;38469;53.562;10.048;2023-07-09T07:53:07;3.90;;;2.30;;
52576;SDS011;38469;53.562;10.048;2023-07-09T07:55:34;4.05;;;2.78;;
52576;SDS011;38469;53.562;10.048;2023-07-09T07:58:02;3.85;;;2.97;;
52576;SDS011;38469;53.562;10.048;2023-07-09T08:00:29;3.63;;;2.83;;
52576;SDS011;38469;53.562;10.048;2023-07-09T08:02:55;3.25;;;2.75;;
52576;SDS011;38469;53.562;10.048;2023-07-09T08:05:22;3.28;;;2.97;;
52576;SDS011;38469;53.562;10.048;2023-07-09T08:07:49;3.03;;;2.80;;
52576;SDS011;38469;53.562;10.048;2023-07-09T08:10:16;4.68;;;2.78;;
52576;SDS011;38469;53.562;10.048;2023-07-09T08:12:43;3.00;;;2.78;;
52576;SDS011;38469;53.562;10.048;2023-07-09T08:15:11;5.28;;;3.03;;
52576;SDS011;38469;53.562;10.048;2023-07-09T08:17:38;3.13;;;2.80;;
52576;SDS011;38469;53.562;10.048;2023-07-09T08:20:05;7.53;;;3.03;;
52576;SDS011;38469;53.562;10.048;2023-07-09T08:22:32;3.75;;;3.03;;
52576;SDS011;38469;53.562;10.048;2023-07-09T08:24:58;5.00;;;3.20;;
52576;SDS011;38469;53.562;10.048;2023-07-09T08:27:25;2.97;;;2.78;;
52576;SDS011;38469;53.562;10.048;2023-07-09T08:29:51;7.13;;;3.05;;
52576;SDS011;38469;53.562;10.048;2023-07-09T08:32:19;5.38;;;3.00;;
52576;SDS011;38469;53.562;10.048;2023-07-09T08:34:45;5.00;;;3.47;;
52576;SDS011;38469;53.562;10.048;2023-07-09T08:37:12;3.25;;;3.05;;
52576;SDS011;38469;53.562;10.048;2023-07-09T08:39:38;4.05;;;3.00;;
52576;SDS011;38469;53.562;10.048;2023-07-09T08:42:06;4.65;;;3.22;;
52576;SDS011;38469;53.562;10.048;2023-07-09T08:44:44;3.22;;;2.92;;
52576;SDS011;38469;53.562;10.048;2023-07-09T08:47:25;4.35;;;3.30;;
52576;SDS011;38469;53.562;10.048;2023-07-09T08:50:00;3.40;;;3.10;;
52576;SDS011;38469;53.562;10.048;2023-07-09T08:52:33;3.55;;;2.67;;
52576;SDS011;38469;53.562;10.048;2023-07-09T08:55:02;3.20;;;3.00;;
52576;SDS011;38469;53.562;10.048;2023-07-09T08:57:33;6.65;;;3.17;;
52576;SDS011;38469;53.562;10.048;2023-07-09T09:00:05;3.38;;;3.08;;
52576;SDS011;38469;53.562;10.048;2023-07-09T09:02:42;3.80;;;3.22;;
52576;SDS011;38469;53.562;10.048;2023-07-09T09:05:14;3.30;;;3.00;;
52576;SDS011;38469;53.562;10.048;2023-07-09T09:07:44;3.55;;;3.20;;
52576;SDS011;38469;53.562;10.048;2023-07-09T09:10:14;3.63;;;3.33;;
52576;SDS011;38469;53.562;10.048;2023-07-09T09:12:50;5.93;;;3.67;;
52576;SDS011;38469;53.562;10.048;2023-07-09T09:15:26;5.28;;;3.28;;
52576;SDS011;38469;53.562;10.048;2023-07-09T09:17:55;5.35;;;3.50;;
52576;SDS011;38469;53.562;10.048;2023-07-09T09:20:26;7.00;;;3.50;;
52576;SDS011;38469;53.562;10.048;2023-07-09T09:22:54;3.58;;;3.28;;
52576;SDS011;38469;53.562;10.048;2023-07-09T09:25:27;8.18;;;3.83;;
52576;SDS011;38469;53.562;10.048;2023-07-09T09:27:55;6.53;;;3.13;;
52576;SDS011;38469;53.562;10.048;2023-07-09T09:30:22;3.35;;;3.00;;
52576;SDS011;38469;53.562;10.048;2023-07-09T09:32:52;9.20;;;3.45;;
52576;SDS011;38469;53.562;10.048;2023-07-09T09:35:25;3.65;;;3.28;;
52576;SDS011;38469;53.562;10.048;2023-07-09T09:37:54;3.75;;;3.20;;
52576;SDS011;38469;53.562;10.048;2023-07-09T09:40:22;3.50;;;3.20;;
52576;SDS011;38469;53.562;10.048;2023-07-09T09:42:50;4.05;;;3.67;;
52576;SDS011;38469;53.562;10.048;2023-07-09T09:45:19;5.03;;;3.25;;
52576;SDS011;38469;53.562;10.048;2023-07-09T09:47:58;4.32;;;3.65;;
52576;SDS011;38469;53.562;10.048;2023-07-09T09:50:27;4.15;;;3.75;;
52576;SDS011;38469;53.562;10.048;2023-07-09T09:52:58;6.28;;;4.20;;
52576;SDS011;38469;53.562;10.048;2023-07-09T09:55:28;7.43;;;4.10;;
52576;SDS011;38469;53.562;10.048;2023-07-09T09:57:55;5.68;;;3.63;;
52576;SDS011;38469;53.562;10.048;2023-07-09T10:00:24;4.97;;;3.75;;
52576;SDS011;38469;53.562;10.048;2023-07-09T10:02:56;6.93;;;4.22;;
52576;SDS011;38469;53.562;10.048;2023-07-09T10:05:28;4.80;;;4.03;;
52576;SDS011;38469;53.562;10.048;2023-07-09T10:07:59;5.57;;;3.50;;
52576;SDS011;38469;53.562;10.048;2023-07-09T10:10:30;6.63;;;4.18;;
52576;SDS011;38469;53.562;10.048;2023-07-09T10:12:59;6.55;;;4.53;;
52576;SDS011;38469;53.562;10.048;2023-07-09T10:15:33;6.60;;;3.45;;
52576;SDS011;38469;53.562;10.048;2023-07-09T10:18:09;7.95;;;3.90;;
52576;SDS011;38469;53.562;10.048;2023-07-09T10:20:50;5.00;;;3.80;;
52576;SDS011;38469;53.562;10.048;2023-07-09T10:23:25;4.40;;;4.00;;
52576;SDS011;38469;53.562;10.048;2023-07-09T10:25:57;6.35;;;5.05;;
52576;SDS011;38469;53.562;10.048;2023-07-09T10:31:33;10.10;;;3.97;;
52576;SDS011;38469;53.562;10.048;2023-07-09T10:34:09;4.05;;;3.65;;
52576;SDS011;38469;53.562;10.048;2023-07-09T10:36:53;4.18;;;3.38;;
52576;SDS011;38469;53.562;10.048;2023-07-09T10:42:00;5.68;;;3.60;;
52576;SDS011;38469;53.562;10.048;2023-07-09T10:44:29;6.47;;;4.53;;
52576;SDS011;38469;53.562;10.048;2023-07-09T10:46:59;3.47;;;3.17;;
52576;SDS011;38469;53.562;10.048;2023-07-09T10:49:30;6.20;;;3.80;;
52576;SDS011;38469;53.562;10.048;2023-07-09T10:52:04;9.48;;;3.88;;
52576;SDS011;38469;53.562;10.048;2023-07-09T10:54:33;3.55;;;3.25;;
52576;SDS011;38469;53.562;10.048;2023-07-09T10:57:08;5.20;;;3.30;;
52576;SDS011;38469;53.562;10.048;2023-07-09T10:59:39;4.40;;;3.20;;
52576;SDS011;38469;53.562;10.048;2023-07-09T11:02:13;3.65;;;3.30;;
52576;SDS011;38469;53.562;10.048;2023-07-09T11:04:45;5.28;;;3.10;;
52576;SDS011;38469;53.562;10.048;2023-07-09T11:07:19;3.20;;;3.00;;
52576;SDS011;38469;53.562;10.048;2023-07-09T11:09:51;5.38;;;3.40;;
52576;SDS011;38469;53.562;10.048;2023-07-09T11:12:22;5.85;;;3.60;;
52576;SDS011;38469;53.562;10.048;2023-07-09T11:14:55;3.78;;;3.38;;
52576;SDS011;38469;53.562;10.048;2023-07-09T11:17:25;4.40;;;3.60;;
52576;SDS011;38469;53.562;10.048;2023-07-09T11:19:54;4.93;;;3.53;;
52576;SDS011;38469;53.562;10.048;2023-07-09T11:22:25;5.32;;;3.90;;
52576;SDS011;38469;53.562;10.048;2023-07-09T11:25:03;7.20;;;4.20;;
52576;SDS011;38469;53.562;10.048;2023-07-09T11:27:32;4.50;;;3.83;;
52576;SDS011;38469;53.562;10.048;2023-07-09T11:30:00;6.45;;;4.13;;
52576;SDS011;38469;53.562;10.048;2023-07-09T11:32:29;9.68;;;5.35;;
52576;SDS011;38469;53.562;10.048;2023-07-09T11:35:05;6.07;;;3.60;;
52576;SDS011;38469;53.562;10.048;2023-07-09T11:37:43;6.80;;;3.90;;
52576;SDS011;38469;53.562;10.048;2023-07-09T11:40:12;5.22;;;4.72;;
52576;SDS011;38469;53.562;10.048;2023-07-09T11:42:46;9.10;;;4.10;;
52576;SDS011;38469;53.562;10.048;2023-07-09T11:45:16;7.55;;;4.25;;
52576;SDS011;38469;53.562;10.048;2023-07-09T11:47:46;7.43;;;4.18;;
52576;SDS011;38469;53.562;10.048;2023-07-09T11:50:22;5.28;;;4.78;;
52576;SDS011;38469;53.562;10.048;2023-07-09T11:52:53;5.40;;;4.07;;
52576;SDS011;38469;53.562;10.048;2023-07-09T11:55:25;6.97;;;4.88;;
52576;SDS011;38469;53.562;10.048;2023-07-09T11:57:54;5.28;;;4.10;;
52576;SDS011;38469;53.562;10.048;2023-07-09T12:00:22;6.07;;;3.63;;
52576;SDS011;38469;53.562;10.048;2023-07-09T12:02:48;6.55;;;4.30;;
52576;SDS011;38469;53.562;10.048;2023-07-09T12:05:18;4.20;;;3.67;;
52576;SDS011;38469;53.562;10.048;2023-07-09T12:07:48;4.97;;;4.07;;
52576;SDS011;38469;53.562;10.048;2023-07-09T12:10:20;6.18;;;4.40;;
52576;SDS011;38469;53.562;10.048;2023-07-09T12:15:21;8.70;;;5.03;;
52576;SDS011;38469;53.562;10.048;2023-07-09T12:17:52;5.25;;;4.35;;
52576;SDS011;38469;53.562;10.048;2023-07-09T12:20:20;5.40;;;3.67;;
52576;SDS011;38469;53.562;10.048;2023-07-09T12:22:47;5.30;;;3.90;;
52576;SDS011;38469;53.562;10.048;2023-07-09T12:25:18;4.93;;;4.10;;
52576;SDS011;38469;53.562;10.048;2023-07-09T12:30:15;6.78;;;4.07;;
52576;SDS011;38469;53.562;10.048;2023-07-09T12:32:45;4.15;;;3.70;;
52576;SDS011;38469;53.562;10.048;2023-07-09T12:35:14;5.18;;;4.45;;
52576;SDS011;38469;53.562;10.048;2023-07-09T12:37:42;11.88;;;4.38;;
52576;SDS011;38469;53.562;10.048;2023-07-09T12:40:13;4.53;;;3.80;;
52576;SDS011;38469;53.562;10.048;2023-07-09T12:42:43;5.45;;;4.00;;
52576;SDS011;38469;53.562;10.048;2023-07-09T12:45:17;4.50;;;4.00;;
52576;SDS011;38469;53.562;10.048;2023-07-09T12:53:01;5.20;;;3.85;;
52576;SDS011;38469;53.562;10.048;2023-07-09T12:55:29;4.75;;;3.72;;
52576;SDS011;38469;53.562;10.048;2023-07-09T12:58:07;5.35;;;3.92;;
52576;SDS011;38469;53.562;10.048;2023-07-09T13:00:35;4.40;;;3.70;;
52576;SDS011;38469;53.562;10.048;2023-07-09T13:03:02;7.47;;;4.50;;
52576;SDS011;38469;53.562;10.048;2023-07-09T13:05:29;4.63;;;4.10;;
52576;SDS011;38469;53.562;10.048;2023-07-09T13:07:58;6.10;;;4.25;;
52576;SDS011;38469;53.562;10.048;2023-07-09T13:10:26;4.80;;;3.70;;
52576;SDS011;38469;53.562;10.048;2023-07-09T13:12:55;8.50;;;4.22;;
52576;SDS011;38469;53.562;10.048;2023-07-09T13:15:25;4.72;;;4.32;;
52576;SDS011;38469;53.562;10.048;2023-07-09T13:17:58;5.70;;;3.95;;
52576;SDS011;38469;53.562;10.048;2023-07-09T13:20:26;4.88;;;3.95;;
52576;SDS011;38469;53.562;10.048;2023-07-09T13:22:53;6.10;;;3.70;;
52576;SDS011;38469;53.562;10.048;2023-07-09T13:25:20;7.78;;;4.47;;
52576;SDS011;38469;53.562;10.048;2023-07-09T13:27:47;6.88;;;4.20;;
52576;SDS011;38469;53.562;10.048;2023-07-09T13:30:14;5.82;;;3.70;;
52576;SDS011;38469;53.562;10.048;2023-07-09T13:32:42;6.25;;;3.95;;
52576;SDS011;38469;53.562;10.048;2023-07-09T13:35:13;5.60;;;3.65;;
52576;SDS011;38469;53.562;10.048;2023-07-09T13:37:41;4.15;;;3.75;;
52576;SDS011;38469;53.562;10.048;2023-07-09T13:40:09;5.10;;;4.03;;
52576;SDS011;38469;53.562;10.048;2023-07-09T13:42:37;6.93;;;4.30;;
52576;SDS011;38469;53.562;10.048;2023-07-09T13:45:08;10.23;;;4.70;;
52576;SDS011;38469;53.562;10.048;2023-07-09T13:47:43;4.28;;;3.95;;
52576;SDS011;38469;53.562;10.048;2023-07-09T13:50:09;3.95;;;3.58;;
52576;SDS011;38469;53.562;10.048;2023-07-09T13:52:36;7.15;;;4.35;;
52576;SDS011;38469;53.562;10.048;2023-07-09T13:55:03;5.47;;;3.75;;
52576;SDS011;38469;53.562;10.048;2023-07-09T13:57:30;4.63;;;4.22;;
52576;SDS011;38469;53.562;10.048;2023-07-09T13:59:57;6.53;;;4.25;;
52576;SDS011;38469;53.562;10.048;2023-07-09T14:02:24;4.18;;;3.70;;
52576;SDS011;38469;53.562;10.048;2023-07-09T14:04:57;7.03;;;4.10;;
52576;SDS011;38469;53.562;10.048;2023-07-09T14:07:25;5.88;;;4.22;;
52576;SDS011;38469;53.562;10.048;2023-07-09T14:09:54;4.75;;;3.90;;
52576;SDS011;38469;53.562;10.048;2023-07-09T14:12:21;4.20;;;3.80;;
52576;SDS011;38469;53.562;10.048;2023-07-09T14:14:49;4.55;;;3.78;;
52576;SDS011;38469;53.562;10.048;2023-07-09T14:17:16;6.43;;;4.22;;
52576;SDS011;38469;53.562;10.048;2023-07-09T14:19:43;7.95;;;4.07;;
52576;SDS011;38469;53.562;10.048;2023-07-09T14:22:19;7.30;;;4.03;;
52576;SDS011;38469;53.562;10.048;2023-07-09T14:24:49;5.88;;;3.65;;
52576;SDS011;38469;53.562;10.048;2023-07-09T14:27:16;7.97;;;4.20;;
52576;SDS011;38469;53.562;10.048;2023-07-09T14:29:43;5.38;;;4.28;;
52576;SDS011;38469;53.562;10.048;2023-07-09T14:32:13;4.22;;;3.85;;
52576;SDS011;38469;53.562;10.048;2023-07-09T14:34:56;4.20;;;3.83;;
52576;SDS011;38469;53.562;10.048;2023-07-09T14:37:24;8.43;;;4.20;;
52576;SDS011;38469;53.562;10.048;2023-07-09T14:39:51;6.72;;;4.13;;
52576;SDS011;38469;53.562;10.048;2023-07-09T14:42:18;6.70;;;4.70;;
52576;SDS011;38469;53.562;10.048;2023-07-09T14:44:47;7.45;;;4.05;;
52576;SDS011;38469;53.562;10.048;2023-07-09T14:47:15;6.72;;;4.55;;
52576;SDS011;38469;53.562;10.048;2023-07-09T14:49:43;6.05;;;4.20;;
52576;SDS011;38469;53.562;10.048;2023-07-09T14:52:11;4.57;;;4.13;;
52576;SDS011;38469;53.562;10.048;2023-07-09T14:54:41;6.55;;;5.38;;
52576;SDS011;38469;53.562;10.048;2023-07-09T14:57:11;5.10;;;4.32;;